createdAt,value
2023-05-11T00:00:00.347Z,14.67
2023-05-11T00:02:27.705Z,14.68
2023-05-11T00:04:55.636Z,14.67
2023-05-11T00:07:22.568Z,14.55
2023-05-11T00:09:49.986Z,14.51
2023-05-11T00:12:17.404Z,14.52
2023-05-11T00:14:47.467Z,14.53
2023-05-11T00:17:14.285Z,14.53
2023-05-11T00:19:41.265Z,14.52
2023-05-11T00:22:08.216Z,14.45
2023-05-11T00:24:35.908Z,14.49
2023-05-11T00:27:05.773Z,14.44
2023-05-11T00:29:34.351Z,14.40
2023-05-11T00:32:01.872Z,14.44
2023-05-11T00:34:28.768Z,14.43
2023-05-11T00:36:57.696Z,14.38
2023-05-11T00:39:25.130Z,14.28
2023-05-11T00:41:52.840Z,14.24
2023-05-11T00:44:19.747Z,14.23
2023-05-11T00:46:46.868Z,14.22
2023-05-11T00:49:17.688Z,14.12
2023-05-11T00:51:45.257Z,14.04
2023-05-11T00:54:16.085Z,14.07
2023-05-11T00:56:42.981Z,14.07
2023-05-11T00:59:10.048Z,14.06
2023-05-11T01:01:39.153Z,14.07
2023-05-11T01:04:07.413Z,14.04
2023-05-11T01:06:44.910Z,14.05
2023-05-11T01:09:24.091Z,13.98
2023-05-11T01:12:06.756Z,13.86
2023-05-11T01:14:49.934Z,13.92
2023-05-11T01:17:32.171Z,14.07
2023-05-11T01:20:04.808Z,14.10
2023-05-11T01:23:10.865Z,14.07
2023-05-11T01:25:57.672Z,13.95
2023-05-11T01:28:58.834Z,13.88
2023-05-11T01:31:36.636Z,13.86
2023-05-11T01:34:11.079Z,13.83
2023-05-11T01:36:43.754Z,13.79
2023-05-11T01:39:13.370Z,13.69
2023-05-11T01:41:42.296Z,13.65
2023-05-11T01:44:10.730Z,13.59
2023-05-11T01:46:39.039Z,13.69
2023-05-11T01:49:10.464Z,13.69
2023-05-11T01:51:38.837Z,13.68
2023-05-11T01:54:08.549Z,13.71
2023-05-11T01:56:38.075Z,13.72
2023-05-11T01:59:05.742Z,13.74
2023-05-11T02:01:35.968Z,13.77
2023-05-11T02:04:05.932Z,13.69
2023-05-11T02:06:35.826Z,13.64
2023-05-11T02:09:04.635Z,13.66
2023-05-11T02:11:33.610Z,13.56
2023-05-11T02:14:01.210Z,13.59
2023-05-11T02:16:29.743Z,13.48
2023-05-11T02:18:58.046Z,13.56
2023-05-11T02:21:26.968Z,13.50
2023-05-11T02:23:55.167Z,13.51
2023-05-11T02:26:23.233Z,13.56
2023-05-11T02:32:49.849Z,13.41
2023-05-11T02:35:25.863Z,13.35
2023-05-11T02:37:57.257Z,13.31
2023-05-11T02:40:31.274Z,13.27
2023-05-11T02:43:01.246Z,13.25
2023-05-11T02:45:32.550Z,13.20
2023-05-11T02:48:01.339Z,13.15
2023-05-11T02:50:32.901Z,13.08
2023-05-11T02:53:03.161Z,13.07
2023-05-11T02:55:31.011Z,13.06
2023-05-11T02:57:58.496Z,12.94
2023-05-11T03:00:26.608Z,12.87
2023-05-11T03:02:55.491Z,12.83
2023-05-11T03:05:24.492Z,12.77
2023-05-11T03:07:53.389Z,12.78
2023-05-11T03:10:20.754Z,12.82
2023-05-11T03:12:47.857Z,12.80
2023-05-11T03:15:18.097Z,12.88
2023-05-11T03:17:51.411Z,12.88
2023-05-11T03:20:19.250Z,12.75
2023-05-11T03:22:46.804Z,12.86
2023-05-11T03:25:15.052Z,12.90
2023-05-11T03:27:44.564Z,12.97
2023-05-11T03:30:14.955Z,13.02
2023-05-11T03:32:45.460Z,12.94
2023-05-11T03:35:12.464Z,12.95
2023-05-11T03:37:39.755Z,12.83
2023-05-11T03:40:09.250Z,12.87
2023-05-11T03:42:48.872Z,12.79
2023-05-11T03:45:19.366Z,12.80
2023-05-11T03:47:47.364Z,12.84
2023-05-11T03:50:16.013Z,12.84
2023-05-11T03:52:43.720Z,12.90
2023-05-11T03:55:11.055Z,12.94
2023-05-11T03:57:38.899Z,12.98
2023-05-11T04:00:08.794Z,12.93
2023-05-11T04:02:42.762Z,12.97
2023-05-11T04:05:12.084Z,12.97
2023-05-11T04:07:40.085Z,12.95
2023-05-11T04:10:09.763Z,12.97
2023-05-11T04:12:37.126Z,12.93
2023-05-11T04:15:05.163Z,12.85
2023-05-11T04:17:32.152Z,12.84
2023-05-11T04:19:59.124Z,12.87
2023-05-11T04:22:27.533Z,12.91
2023-05-11T04:24:55.554Z,12.99
2023-05-11T04:27:23.515Z,12.95
2023-05-11T04:29:51.015Z,12.92
2023-05-11T04:32:17.961Z,13.00
2023-05-11T04:34:45.194Z,12.98
2023-05-11T04:37:14.074Z,13.01
2023-05-11T04:39:42.278Z,13.05
2023-05-11T04:42:09.501Z,13.12
2023-05-11T04:44:38.477Z,13.10
2023-05-11T04:47:06.844Z,13.12
2023-05-11T04:49:33.862Z,13.26
2023-05-11T04:52:01.196Z,13.28
2023-05-11T04:54:28.906Z,13.37
2023-05-11T04:56:57.440Z,13.41
2023-05-11T04:59:24.643Z,13.42
2023-05-11T05:01:51.546Z,13.44
2023-05-11T05:04:19.619Z,13.46
2023-05-11T05:06:46.657Z,13.55
2023-05-11T05:09:16.588Z,13.57
2023-05-11T05:11:44.456Z,13.62
2023-05-11T05:14:12.463Z,13.60
2023-05-11T05:16:39.814Z,13.60
2023-05-11T05:19:07.070Z,13.68
2023-05-11T05:21:36.008Z,13.71
2023-05-11T05:24:07.133Z,13.76
2023-05-11T05:26:34.216Z,13.79
2023-05-11T05:29:01.501Z,13.87
2023-05-11T05:31:28.876Z,13.91
2023-05-11T05:33:56.719Z,13.95
2023-05-11T05:36:24.463Z,14.00
2023-05-11T05:38:51.366Z,14.07
2023-05-11T05:41:18.846Z,14.08
2023-05-11T05:43:46.360Z,14.12
2023-05-11T05:46:16.062Z,14.20
2023-05-11T05:48:43.129Z,14.28
2023-05-11T05:51:10.628Z,14.29
2023-05-11T05:53:38.198Z,14.37
2023-05-11T05:56:05.440Z,14.43
2023-05-11T05:58:32.753Z,14.45
2023-05-11T06:01:01.242Z,14.49
2023-05-11T06:03:29.618Z,14.47
2023-05-11T06:05:57.775Z,14.55
2023-05-11T06:08:25.040Z,14.62
2023-05-11T06:10:52.340Z,14.73
2023-05-11T06:13:20.884Z,14.73
2023-05-11T06:15:50.412Z,14.81
2023-05-11T06:18:31.251Z,14.86
2023-05-11T06:20:59.720Z,14.93
2023-05-11T06:23:28.140Z,15.02
2023-05-11T06:26:01.278Z,15.05
2023-05-11T06:28:30.859Z,15.13
2023-05-11T06:31:01.336Z,15.21
2023-05-11T06:33:31.569Z,15.12
2023-05-11T06:35:59.253Z,15.26
2023-05-11T06:38:29.447Z,15.42
2023-05-11T06:40:56.799Z,15.50
2023-05-11T06:43:24.247Z,15.58
2023-05-11T06:45:54.819Z,15.64
2023-05-11T06:48:23.677Z,15.70
2023-05-11T06:50:52.241Z,15.67
2023-05-11T06:53:21.604Z,15.72
2023-05-11T06:55:48.794Z,15.78
2023-05-11T06:58:17.298Z,15.84
2023-05-11T07:00:45.550Z,15.95
2023-05-11T07:03:12.867Z,16.00
2023-05-11T07:05:40.359Z,15.98
2023-05-11T07:08:07.651Z,16.01
2023-05-11T07:10:34.740Z,16.05
2023-05-11T07:13:02.326Z,16.08
2023-05-11T07:15:30.850Z,16.14
2023-05-11T07:17:57.832Z,16.19
2023-05-11T07:20:24.843Z,16.21
2023-05-11T07:22:51.750Z,16.24
2023-05-11T07:25:18.705Z,16.30
2023-05-11T07:27:45.645Z,16.38
2023-05-11T07:30:13.021Z,16.41
2023-05-11T07:32:40.319Z,16.41
2023-05-11T07:35:09.275Z,16.54
2023-05-11T07:37:36.253Z,16.60
2023-05-11T07:40:03.337Z,16.66
2023-05-11T07:42:30.499Z,16.72
2023-05-11T07:44:57.361Z,16.73
2023-05-11T07:47:27.244Z,16.78
2023-05-11T07:49:54.149Z,16.83
2023-05-11T07:52:21.018Z,16.92
2023-05-11T07:54:47.877Z,16.95
2023-05-11T07:57:14.859Z,16.99
2023-05-11T07:59:41.858Z,17.14
2023-05-11T08:02:11.595Z,17.18
2023-05-11T08:04:40.930Z,17.21
2023-05-11T08:07:07.879Z,17.24
2023-05-11T08:09:34.785Z,17.32
2023-05-11T08:12:02.418Z,17.36
2023-05-11T08:14:29.678Z,17.29
2023-05-11T08:16:56.845Z,17.38
2023-05-11T08:19:25.335Z,17.48
2023-05-11T08:21:53.811Z,17.46
2023-05-11T08:24:22.033Z,17.55
2023-05-11T08:26:49.289Z,17.59
2023-05-11T08:29:17.381Z,17.71
2023-05-11T08:31:44.247Z,17.74
2023-05-11T08:34:19.197Z,17.79
2023-05-11T08:36:48.040Z,17.76
2023-05-11T08:39:21.572Z,17.77
2023-05-11T08:41:57.944Z,17.86
2023-05-11T08:44:26.745Z,17.99
2023-05-11T08:47:08.540Z,18.08
2023-05-11T08:49:44.050Z,18.09
2023-05-11T08:52:11.056Z,18.07
2023-05-11T08:54:41.117Z,18.15
2023-05-11T08:57:08.196Z,18.21
2023-05-11T08:59:35.335Z,18.26
2023-05-11T09:02:02.984Z,18.36
2023-05-11T09:04:30.077Z,18.42
2023-05-11T09:06:57.814Z,18.47
2023-05-11T09:09:25.092Z,18.50
2023-05-11T09:11:55.622Z,18.52
2023-05-11T09:14:26.913Z,18.49
2023-05-11T09:16:55.115Z,18.54
2023-05-11T09:19:22.176Z,18.61
2023-05-11T09:21:49.748Z,18.73
2023-05-11T09:24:16.697Z,18.73
2023-05-11T09:26:43.797Z,18.71
2023-05-11T09:29:10.758Z,18.70
2023-05-11T09:31:47.745Z,18.80
2023-05-11T09:34:20.121Z,18.88
2023-05-11T09:36:51.920Z,18.96
2023-05-11T09:39:35.158Z,19.03
2023-05-11T09:42:22.516Z,19.05
2023-05-11T09:44:49.733Z,19.03
2023-05-11T09:47:23.494Z,19.09
2023-05-11T09:49:50.378Z,19.16
2023-05-11T09:52:18.566Z,19.27
2023-05-11T09:54:50.578Z,19.36
2023-05-11T09:57:31.357Z,19.50
2023-05-11T10:00:00.139Z,19.62
2023-05-11T10:02:28.892Z,19.67
2023-05-11T10:05:00.668Z,19.81
2023-05-11T10:07:31.546Z,19.81
2023-05-11T10:10:01.850Z,19.85
2023-05-11T10:12:30.631Z,19.97
2023-05-11T10:15:08.756Z,20.13
2023-05-11T10:17:37.178Z,20.09
2023-05-11T10:20:06.280Z,19.98
2023-05-11T10:22:34.001Z,20.18
2023-05-11T10:25:03.325Z,20.28
2023-05-11T10:27:31.563Z,20.41
2023-05-11T10:29:59.040Z,20.53
2023-05-11T10:32:26.057Z,20.66
2023-05-11T10:34:53.004Z,20.73
2023-05-11T10:37:21.621Z,20.81
2023-05-11T10:39:50.547Z,20.99
2023-05-11T10:42:48.824Z,21.09
2023-05-11T10:45:21.855Z,21.23
2023-05-11T10:48:13.221Z,21.38
2023-05-11T10:51:01.989Z,21.40
2023-05-11T10:53:52.228Z,21.43
2023-05-11T10:56:49.113Z,21.52
2023-05-11T10:59:42.803Z,21.67
2023-05-11T11:02:09.804Z,21.69
2023-05-11T11:04:50.730Z,21.78
2023-05-11T11:07:19.860Z,21.64
2023-05-11T11:10:13.561Z,21.44
2023-05-11T11:12:40.921Z,21.53
2023-05-11T11:15:08.312Z,21.72
2023-05-11T11:17:36.200Z,21.80
2023-05-11T11:20:07.841Z,21.62
2023-05-11T11:22:35.785Z,21.24
2023-05-11T11:25:06.589Z,20.92
2023-05-11T11:27:45.904Z,20.78
2023-05-11T11:30:16.123Z,20.58
2023-05-11T11:32:45.461Z,20.45
2023-05-11T11:35:41.895Z,20.32
2023-05-11T11:38:17.540Z,20.29
2023-05-11T11:40:51.373Z,20.37
2023-05-11T11:43:26.161Z,20.46
2023-05-11T11:45:59.940Z,20.49
2023-05-11T11:48:36.057Z,20.46
2023-05-11T11:51:11.763Z,20.38
2023-05-11T11:53:39.697Z,20.43
2023-05-11T11:56:30.130Z,20.44
2023-05-11T11:59:01.120Z,20.50
2023-05-11T12:01:37.778Z,20.43
2023-05-11T12:04:05.130Z,20.46
2023-05-11T12:06:40.097Z,20.54
2023-05-11T12:09:08.276Z,20.45
2023-05-11T12:11:35.278Z,20.40
2023-05-11T12:14:03.167Z,20.52
2023-05-11T12:16:30.384Z,20.66
2023-05-11T12:19:01.523Z,20.56
2023-05-11T12:21:34.151Z,20.73
2023-05-11T12:24:05.857Z,20.77
2023-05-11T12:26:33.466Z,20.87
2023-05-11T12:29:10.367Z,20.94
2023-05-11T12:31:45.792Z,21.06
2023-05-11T12:34:23.166Z,21.54
2023-05-11T12:36:51.735Z,21.63
2023-05-11T12:39:26.910Z,21.77
2023-05-11T12:41:55.599Z,21.70
2023-05-11T12:44:24.915Z,21.80
2023-05-11T12:46:52.546Z,21.96
2023-05-11T12:49:26.650Z,22.12
2023-05-11T12:52:00.648Z,22.22
2023-05-11T12:54:32.349Z,22.42
2023-05-11T12:57:03.250Z,22.66
2023-05-11T12:59:38.345Z,22.95
2023-05-11T13:02:18.327Z,23.15
2023-05-11T13:04:46.497Z,23.50
2023-05-11T13:07:14.441Z,23.49
2023-05-11T13:09:41.908Z,23.57
2023-05-11T13:12:09.030Z,23.40
2023-05-11T13:14:36.035Z,23.25
2023-05-11T13:17:03.247Z,23.30
2023-05-11T13:19:31.591Z,23.29
2023-05-11T13:21:58.884Z,23.39
2023-05-11T13:24:26.526Z,23.41
2023-05-11T13:26:54.347Z,23.58
2023-05-11T13:29:21.901Z,23.38
2023-05-11T13:31:50.620Z,23.46
2023-05-11T13:34:18.654Z,23.32
2023-05-11T13:36:46.273Z,23.41
2023-05-11T13:39:13.254Z,23.54
2023-05-11T13:41:40.069Z,23.65
2023-05-11T13:44:07.110Z,24.05
2023-05-11T13:46:34.082Z,24.48
2023-05-11T13:49:01.223Z,24.31
2023-05-11T13:51:28.355Z,24.34
2023-05-11T13:53:55.662Z,24.34
2023-05-11T13:56:22.619Z,24.63
2023-05-11T13:58:49.417Z,24.94
2023-05-11T14:01:16.838Z,24.62
2023-05-11T14:03:43.920Z,24.62
2023-05-11T14:06:10.952Z,24.67
2023-05-11T14:08:37.766Z,24.80
2023-05-11T14:11:04.712Z,24.72
2023-05-11T14:13:31.636Z,24.59
2023-05-11T14:15:58.939Z,24.40
2023-05-11T14:18:26.379Z,24.34
2023-05-11T14:20:54.304Z,24.34
2023-05-11T14:23:21.337Z,24.74
2023-05-11T14:25:48.209Z,25.09
2023-05-11T14:28:15.561Z,24.84
2023-05-11T14:30:42.494Z,24.50
2023-05-11T14:33:09.371Z,23.97
2023-05-11T14:35:39.072Z,23.84
2023-05-11T14:38:06.683Z,23.79
2023-05-11T14:40:33.943Z,23.90
2023-05-11T14:43:01.629Z,23.92
2023-05-11T14:45:28.617Z,23.84
2023-05-11T14:47:56.075Z,24.10
2023-05-11T14:50:23.318Z,24.13
2023-05-11T14:52:50.233Z,23.73
2023-05-11T14:55:17.388Z,23.61
2023-05-11T14:57:44.502Z,23.64
2023-05-11T15:00:13.374Z,23.70
2023-05-11T15:02:40.323Z,23.36
2023-05-11T15:05:07.678Z,23.55
2023-05-11T15:07:35.145Z,23.51
2023-05-11T15:10:02.356Z,23.58
2023-05-11T15:12:29.323Z,23.57
2023-05-11T15:14:56.524Z,23.69
2023-05-11T15:17:24.066Z,23.57
2023-05-11T15:19:51.116Z,23.71
2023-05-11T15:22:19.448Z,23.60
2023-05-11T15:24:46.352Z,23.42
2023-05-11T15:27:13.698Z,23.77
2023-05-11T15:29:41.145Z,24.09
2023-05-11T15:32:08.342Z,23.98
2023-05-11T15:34:44.331Z,23.81
2023-05-11T15:37:19.501Z,23.53
2023-05-11T15:39:46.408Z,23.34
2023-05-11T15:42:13.305Z,23.08
2023-05-11T15:44:42.461Z,22.79
2023-05-11T15:47:10.283Z,22.49
2023-05-11T15:49:37.312Z,22.25
2023-05-11T15:52:04.699Z,21.97
2023-05-11T15:54:32.557Z,21.88
2023-05-11T15:57:00.714Z,21.90
2023-05-11T15:59:28.894Z,21.75
2023-05-11T16:01:56.080Z,21.70
2023-05-11T16:04:22.960Z,21.73
2023-05-11T16:06:50.045Z,21.66
2023-05-11T16:09:17.030Z,21.68
2023-05-11T16:11:43.923Z,21.63
2023-05-11T16:14:13.981Z,21.54
2023-05-11T16:16:41.897Z,21.50
2023-05-11T16:19:08.984Z,21.36
2023-05-11T16:21:36.024Z,21.33
2023-05-11T16:24:02.973Z,21.32
2023-05-11T16:26:31.198Z,21.32
2023-05-11T16:28:58.048Z,21.40
2023-05-11T16:31:24.930Z,21.32
2023-05-11T16:33:51.942Z,21.22
2023-05-11T16:36:18.951Z,21.15
2023-05-11T16:38:46.059Z,21.08
2023-05-11T16:41:13.036Z,21.13
2023-05-11T16:43:42.097Z,20.99
2023-05-11T16:46:09.749Z,21.02
2023-05-11T16:48:36.805Z,21.10
2023-05-11T16:51:04.129Z,21.22
2023-05-11T16:53:31.934Z,21.21
2023-05-11T16:55:58.842Z,21.18
2023-05-11T16:58:26.308Z,21.00
2023-05-11T17:00:53.969Z,21.02
2023-05-11T17:03:21.068Z,20.91
2023-05-11T17:05:48.213Z,20.89
2023-05-11T17:08:15.465Z,20.80
2023-05-11T17:10:42.300Z,20.63
2023-05-11T17:13:09.174Z,20.57
2023-05-11T17:15:38.322Z,20.45
2023-05-11T17:18:05.308Z,20.30
2023-05-11T17:20:32.696Z,20.30
2023-05-11T17:22:59.761Z,20.13
2023-05-11T17:25:26.761Z,19.95
2023-05-11T17:27:53.628Z,19.88
2023-05-11T17:30:22.357Z,19.93
2023-05-11T17:32:53.073Z,19.72
2023-05-11T17:35:20.169Z,19.67
2023-05-11T17:37:47.074Z,19.71
2023-05-11T17:40:14.132Z,19.71
2023-05-11T17:42:40.994Z,19.60
2023-05-11T17:45:08.674Z,19.57
2023-05-11T17:47:35.601Z,19.61
2023-05-11T17:50:02.838Z,19.49
2023-05-11T17:52:30.194Z,19.38
2023-05-11T17:54:57.141Z,19.33
2023-05-11T17:57:25.613Z,19.25
2023-05-11T17:59:52.607Z,19.22
2023-05-11T18:02:19.578Z,19.20
2023-05-11T18:04:46.884Z,19.22
2023-05-11T18:07:14.082Z,19.22
2023-05-11T18:09:41.245Z,19.20
2023-05-11T18:12:08.516Z,19.19
2023-05-11T18:14:35.414Z,19.16
2023-05-11T18:17:02.316Z,19.13
2023-05-11T18:19:29.250Z,19.12
2023-05-11T18:21:56.122Z,19.09
2023-05-11T18:24:23.013Z,19.02
2023-05-11T18:26:49.883Z,18.90
2023-05-11T18:29:20.265Z,18.86
2023-05-11T18:31:47.370Z,18.84
2023-05-11T18:34:14.279Z,18.82
2023-05-11T18:36:41.327Z,18.80
2023-05-11T18:39:08.565Z,18.77
2023-05-11T18:41:35.668Z,18.75
2023-05-11T18:44:03.181Z,18.67
2023-05-11T18:46:30.126Z,18.54
2023-05-11T18:48:57.500Z,18.52
2023-05-11T18:51:25.805Z,18.50
2023-05-11T18:53:52.767Z,18.45
2023-05-11T18:56:20.564Z,18.45
2023-05-11T18:58:48.242Z,18.38
2023-05-11T19:01:16.018Z,18.35
2023-05-11T19:03:43.112Z,18.30
2023-05-11T19:06:10.099Z,18.25
2023-05-11T19:08:36.966Z,18.16
2023-05-11T19:11:06.069Z,18.17
2023-05-11T19:13:32.965Z,18.10
2023-05-11T19:15:59.887Z,18.03
2023-05-11T19:18:27.805Z,18.05
2023-05-11T19:20:55.361Z,18.08
2023-05-11T19:23:22.405Z,18.04
2023-05-11T19:25:49.303Z,17.97
2023-05-11T19:28:16.221Z,17.92
2023-05-11T19:30:43.171Z,17.86
2023-05-11T19:33:10.087Z,17.87
2023-05-11T19:35:37.407Z,17.84
2023-05-11T19:38:06.595Z,17.81
2023-05-11T19:43:06.889Z,17.71
2023-05-11T19:45:34.293Z,17.71
2023-05-11T19:48:01.216Z,17.66
2023-05-11T19:50:28.209Z,17.64
2023-05-11T19:52:55.337Z,17.67
2023-05-11T19:55:22.185Z,17.65
2023-05-11T19:57:50.644Z,17.68
2023-05-11T20:00:18.759Z,17.54
2023-05-11T20:02:46.748Z,17.55
2023-05-11T20:05:14.008Z,17.53
2023-05-11T20:07:40.920Z,17.52
2023-05-11T20:10:09.489Z,17.48
2023-05-11T20:12:38.185Z,17.50
2023-05-11T20:15:06.548Z,17.55
2023-05-11T20:17:35.148Z,17.51
2023-05-11T20:20:02.740Z,17.52
2023-05-11T20:22:31.760Z,17.50
2023-05-11T20:24:58.861Z,17.40
2023-05-11T20:27:25.865Z,17.46
2023-05-11T20:29:52.941Z,17.42
2023-05-11T20:32:19.798Z,17.42
2023-05-11T20:34:46.779Z,17.40
2023-05-11T20:37:14.428Z,17.32
2023-05-11T20:39:41.336Z,17.28
2023-05-11T20:42:09.791Z,17.25
2023-05-11T20:44:36.674Z,17.23
2023-05-11T20:47:04.291Z,17.27
2023-05-11T20:49:38.802Z,17.27
2023-05-11T20:52:08.052Z,17.25
2023-05-11T20:54:35.978Z,17.22
2023-05-11T20:57:04.590Z,17.23
2023-05-11T21:02:02.236Z,17.15
2023-05-11T21:04:31.455Z,17.19
2023-05-11T21:06:58.487Z,17.18
2023-05-11T21:09:25.723Z,17.15
2023-05-11T21:11:52.741Z,17.18
2023-05-11T21:14:20.968Z,17.17
2023-05-11T21:16:48.190Z,17.15
2023-05-11T21:19:16.849Z,17.17
2023-05-11T21:21:43.865Z,17.22
2023-05-11T21:24:10.748Z,17.19
2023-05-11T21:26:37.747Z,17.17
2023-05-11T21:29:04.656Z,17.13
2023-05-11T21:31:31.893Z,17.12
2023-05-11T21:33:58.761Z,17.10
2023-05-11T21:36:25.572Z,17.07
2023-05-11T21:38:52.454Z,17.03
2023-05-11T21:41:19.257Z,17.03
2023-05-11T21:43:46.343Z,17.04
2023-05-11T21:46:16.334Z,17.04
2023-05-11T21:48:53.836Z,17.00
2023-05-11T21:51:20.696Z,17.02
2023-05-11T21:53:47.454Z,16.90
2023-05-11T21:56:14.488Z,16.96
2023-05-11T21:58:42.856Z,16.99
2023-05-11T22:01:09.749Z,16.93
2023-05-11T22:03:36.725Z,16.88
2023-05-11T22:06:04.123Z,16.81
2023-05-11T22:08:31.492Z,16.75
2023-05-11T22:10:58.671Z,16.79
2023-05-11T22:13:26.228Z,16.78
2023-05-11T22:15:53.291Z,16.74
2023-05-11T22:18:20.497Z,16.74
2023-05-11T22:20:47.453Z,16.69
2023-05-11T22:23:15.754Z,16.68
2023-05-11T22:25:42.807Z,16.66
2023-05-11T22:28:09.674Z,16.60
2023-05-11T22:30:37.758Z,16.54
2023-05-11T22:33:04.714Z,16.46
2023-05-11T22:35:31.909Z,16.46
2023-05-11T22:38:02.061Z,16.44
2023-05-11T22:40:28.909Z,16.34
2023-05-11T22:42:55.857Z,16.33
2023-05-11T22:45:22.847Z,16.32
2023-05-11T22:47:51.514Z,16.29
2023-05-11T22:50:18.682Z,16.21
2023-05-11T22:52:45.898Z,16.20
2023-05-11T22:55:12.897Z,16.17
2023-05-11T22:57:39.797Z,16.07
2023-05-11T23:00:07.297Z,16.00
2023-05-11T23:02:36.067Z,16.06
2023-05-11T23:05:03.086Z,16.00
2023-05-11T23:07:30.403Z,15.95
2023-05-11T23:09:57.839Z,15.92
2023-05-11T23:12:24.856Z,15.92
2023-05-11T23:14:52.838Z,15.80
2023-05-11T23:17:19.855Z,15.92
2023-05-11T23:19:46.823Z,15.92
2023-05-11T23:22:14.408Z,15.92
2023-05-11T23:24:42.540Z,15.87
2023-05-11T23:27:09.550Z,15.90
2023-05-11T23:29:36.527Z,15.88
2023-05-11T23:32:04.298Z,15.81
2023-05-11T23:34:31.228Z,15.81
2023-05-11T23:36:58.608Z,15.84
2023-05-11T23:39:25.700Z,15.70
2023-05-11T23:41:52.789Z,15.68
2023-05-11T23:44:19.705Z,15.65
2023-05-11T23:46:46.642Z,15.64
2023-05-11T23:49:13.562Z,15.59
2023-05-11T23:51:40.540Z,15.53
2023-05-11T23:54:07.435Z,15.56
2023-05-11T23:56:34.362Z,15.56
2023-05-11T23:59:02.879Z,15.54
